createdAt,value
2023-01-30T00:01:21.741Z,11.30
2023-01-30T00:03:50.060Z,11.25
2023-01-30T00:06:18.861Z,11.17
2023-01-30T00:08:47.533Z,11.12
2023-01-30T00:11:18.148Z,11.13
2023-01-30T00:13:47.653Z,11.10
2023-01-30T00:16:16.445Z,11.01
2023-01-30T00:18:45.903Z,10.96
2023-01-30T00:21:15.929Z,10.96
2023-01-30T00:23:44.684Z,10.91
2023-01-30T00:26:13.929Z,10.87
2023-01-30T00:28:42.343Z,10.82
2023-01-30T00:31:10.874Z,10.76
2023-01-30T00:33:40.530Z,10.69
2023-01-30T00:36:09.319Z,10.66
2023-01-30T00:38:37.756Z,10.54
2023-01-30T00:41:06.463Z,10.43
2023-01-30T00:43:53.109Z,10.33
2023-01-30T00:46:53.826Z,10.30
2023-01-30T00:49:22.258Z,10.27
2023-01-30T00:51:50.588Z,10.21
2023-01-30T00:54:18.840Z,10.14
2023-01-30T00:56:47.112Z,10.08
2023-01-30T00:59:15.429Z,10.01
2023-01-30T01:01:43.914Z,9.94
2023-01-30T01:04:12.746Z,9.88
2023-01-30T01:06:41.500Z,9.83
2023-01-30T01:09:09.849Z,9.75
2023-01-30T01:11:38.328Z,9.70
2023-01-30T01:14:07.450Z,9.70
2023-01-30T01:16:36.942Z,9.70
2023-01-30T01:19:05.873Z,9.72
2023-01-30T01:21:34.222Z,9.72
2023-01-30T01:24:02.587Z,9.68
2023-01-30T01:26:31.343Z,9.63
2023-01-30T01:29:00.489Z,9.55
2023-01-30T01:31:28.944Z,9.45
2023-01-30T01:33:58.164Z,9.40
2023-01-30T01:36:52.027Z,9.34
2023-01-30T01:39:14.762Z,9.27
2023-01-30T01:41:43.061Z,9.24
2023-01-30T01:44:13.617Z,9.27
2023-01-30T01:46:52.097Z,9.26
2023-01-30T01:49:30.632Z,9.27
2023-01-30T01:52:06.889Z,9.26
2023-01-30T01:54:37.922Z,9.26
2023-01-30T01:57:12.889Z,9.22
2023-01-30T01:59:47.584Z,9.20
2023-01-30T02:02:15.759Z,9.16
2023-01-30T02:05:03.229Z,9.15
2023-01-30T02:07:41.245Z,9.15
2023-01-30T02:10:15.031Z,9.15
2023-01-30T02:12:44.893Z,9.14
2023-01-30T02:15:13.626Z,9.11
2023-01-30T02:17:42.002Z,9.06
2023-01-30T02:20:28.501Z,9.05
2023-01-30T02:23:21.271Z,9.06
2023-01-30T02:26:32.307Z,9.05
2023-01-30T02:29:24.059Z,9.04
2023-01-30T02:31:55.190Z,9.06
2023-01-30T02:34:34.764Z,9.08
2023-01-30T02:37:23.103Z,9.11
2023-01-30T02:40:12.358Z,9.08
2023-01-30T02:42:57.985Z,9.02
2023-01-30T02:45:45.030Z,9.03
2023-01-30T02:48:28.398Z,9.04
2023-01-30T02:51:15.091Z,9.02
2023-01-30T02:53:43.378Z,9.00
2023-01-30T02:56:11.661Z,8.96
2023-01-30T02:58:45.496Z,8.96
2023-01-30T03:01:47.808Z,8.96
2023-01-30T03:04:50.128Z,8.95
2023-01-30T03:07:26.851Z,8.95
2023-01-30T03:10:10.003Z,8.93
2023-01-30T03:12:52.844Z,8.90
2023-01-30T03:15:41.860Z,8.86
2023-01-30T03:18:11.256Z,8.81
2023-01-30T03:20:41.217Z,8.80
2023-01-30T03:23:10.000Z,8.79
2023-01-30T03:25:40.570Z,8.79
2023-01-30T03:28:10.738Z,8.83
2023-01-30T03:30:39.089Z,8.89
2023-01-30T03:33:07.495Z,8.91
2023-01-30T03:35:36.032Z,8.91
2023-01-30T03:38:04.535Z,8.88
2023-01-30T03:40:33.377Z,8.83
2023-01-30T03:43:01.733Z,8.81
2023-01-30T03:45:30.075Z,8.84
2023-01-30T03:47:58.398Z,8.87
2023-01-30T03:50:26.708Z,8.91
2023-01-30T03:52:55.511Z,8.89
2023-01-30T03:55:23.888Z,8.84
2023-01-30T03:57:56.671Z,8.86
2023-01-30T04:00:25.046Z,8.90
2023-01-30T04:02:54.640Z,8.92
2023-01-30T04:05:22.954Z,8.98
2023-01-30T04:07:52.071Z,9.04
2023-01-30T04:10:20.935Z,9.07
2023-01-30T04:12:49.605Z,9.09
2023-01-30T04:15:18.277Z,9.09
2023-01-30T04:17:48.701Z,9.11
2023-01-30T04:20:17.463Z,9.11
2023-01-30T04:22:46.060Z,9.12
2023-01-30T04:25:14.426Z,9.16
2023-01-30T04:27:42.727Z,9.17
2023-01-30T04:30:11.614Z,9.14
2023-01-30T04:32:39.852Z,9.09
2023-01-30T04:35:08.536Z,9.02
2023-01-30T04:37:36.786Z,9.01
2023-01-30T04:40:05.574Z,9.00
2023-01-30T04:42:33.885Z,9.01
2023-01-30T04:45:02.177Z,9.01
2023-01-30T04:47:30.456Z,8.95
2023-01-30T04:49:58.823Z,8.91
2023-01-30T04:52:27.076Z,8.89
2023-01-30T04:54:55.346Z,8.89
2023-01-30T04:57:23.568Z,8.85
2023-01-30T04:59:51.828Z,8.81
2023-01-30T05:02:21.817Z,8.80
2023-01-30T05:04:51.672Z,8.82
2023-01-30T05:07:20.007Z,8.83
2023-01-30T05:09:48.374Z,8.82
2023-01-30T05:12:16.622Z,8.81
2023-01-30T05:14:44.969Z,8.73
2023-01-30T05:17:13.285Z,8.72
2023-01-30T05:19:41.619Z,8.69
2023-01-30T05:22:09.997Z,8.65
2023-01-30T05:24:38.264Z,8.63
2023-01-30T05:27:06.966Z,8.64
2023-01-30T05:29:35.247Z,8.59
2023-01-30T05:32:04.657Z,8.57
2023-01-30T05:34:32.942Z,8.58
2023-01-30T05:37:01.194Z,8.59
2023-01-30T05:39:29.455Z,8.63
2023-01-30T05:41:57.753Z,8.63
2023-01-30T05:44:26.071Z,8.61
2023-01-30T05:46:54.432Z,8.56
2023-01-30T05:49:22.735Z,8.55
2023-01-30T05:51:51.710Z,8.57
2023-01-30T05:54:20.056Z,8.56
2023-01-30T05:56:51.401Z,8.59
2023-01-30T05:59:19.770Z,8.62
2023-01-30T06:01:48.271Z,8.67
2023-01-30T06:04:16.617Z,8.68
2023-01-30T06:06:44.894Z,8.75
2023-01-30T06:09:13.303Z,8.75
2023-01-30T06:11:41.584Z,8.75
2023-01-30T06:14:09.929Z,8.74
2023-01-30T06:16:38.293Z,8.79
2023-01-30T06:19:06.612Z,8.82
2023-01-30T06:21:34.872Z,8.87
2023-01-30T06:24:03.333Z,8.91
2023-01-30T06:26:31.612Z,8.95
2023-01-30T06:28:59.956Z,8.97
2023-01-30T06:31:28.340Z,8.97
2023-01-30T06:33:56.631Z,8.99
2023-01-30T06:36:24.918Z,8.97
2023-01-30T06:38:53.247Z,8.97
2023-01-30T06:41:21.629Z,8.96
2023-01-30T06:43:50.069Z,9.01
2023-01-30T06:46:18.516Z,9.00
2023-01-30T06:48:46.913Z,8.99
2023-01-30T06:51:15.269Z,8.98
2023-01-30T06:53:43.884Z,8.96
2023-01-30T06:56:12.180Z,8.95
2023-01-30T06:58:40.521Z,8.93
2023-01-30T07:01:08.856Z,8.94
2023-01-30T07:03:37.175Z,8.94
2023-01-30T07:06:05.613Z,8.95
2023-01-30T07:08:33.914Z,8.90
2023-01-30T07:11:02.264Z,8.87
2023-01-30T07:13:30.611Z,8.82
2023-01-30T07:15:58.964Z,8.80
2023-01-30T07:18:27.241Z,8.72
2023-01-30T07:20:55.563Z,8.69
2023-01-30T07:23:23.852Z,8.65
2023-01-30T07:25:52.379Z,8.63
2023-01-30T07:28:20.754Z,8.58
2023-01-30T07:30:53.486Z,8.54
2023-01-30T07:33:21.869Z,8.49
2023-01-30T07:35:50.216Z,8.43
2023-01-30T07:38:18.576Z,8.40
2023-01-30T07:40:46.919Z,8.40
2023-01-30T07:43:15.667Z,8.40
2023-01-30T07:45:49.273Z,8.37
2023-01-30T07:48:19.915Z,8.35
2023-01-30T07:50:48.561Z,8.34
2023-01-30T07:53:19.463Z,8.34
2023-01-30T07:55:47.847Z,8.28
2023-01-30T07:58:17.521Z,8.25
2023-01-30T08:00:46.664Z,8.24
2023-01-30T08:03:16.539Z,8.22
2023-01-30T08:05:47.618Z,8.17
2023-01-30T08:08:16.637Z,8.11
2023-01-30T08:10:45.396Z,8.07
2023-01-30T08:13:13.762Z,8.04
2023-01-30T08:15:42.097Z,8.00
2023-01-30T08:18:10.386Z,7.95
2023-01-30T08:20:38.722Z,7.95
2023-01-30T08:23:07.259Z,7.95
2023-01-30T08:25:36.397Z,7.92
2023-01-30T08:28:05.884Z,7.90
2023-01-30T08:30:34.352Z,7.88
2023-01-30T08:33:02.627Z,7.86
2023-01-30T08:35:30.949Z,7.85
2023-01-30T08:37:59.295Z,7.81
2023-01-30T08:40:27.665Z,7.78
2023-01-30T08:42:56.011Z,7.77
2023-01-30T08:45:24.475Z,7.73
2023-01-30T08:47:52.749Z,7.73
2023-01-30T08:50:21.325Z,7.70
2023-01-30T08:52:50.118Z,7.69
2023-01-30T08:55:19.349Z,7.69
2023-01-30T08:57:47.847Z,7.65
2023-01-30T09:00:17.390Z,7.60
2023-01-30T09:02:49.094Z,7.55
2023-01-30T09:05:17.483Z,7.51
2023-01-30T09:07:46.245Z,7.40
2023-01-30T09:10:14.754Z,7.31
2023-01-30T09:12:43.191Z,7.34
2023-01-30T09:15:12.386Z,7.33
2023-01-30T09:17:40.870Z,7.25
2023-01-30T09:20:10.493Z,7.22
2023-01-30T09:22:39.287Z,7.22
2023-01-30T09:25:09.262Z,7.17
2023-01-30T09:27:38.035Z,7.16
2023-01-30T09:30:07.729Z,7.11
2023-01-30T09:32:38.336Z,7.05
2023-01-30T09:35:07.329Z,7.04
2023-01-30T09:37:36.047Z,7.03
2023-01-30T09:40:05.417Z,6.92
2023-01-30T09:42:55.215Z,6.79
2023-01-30T09:45:38.595Z,6.71
2023-01-30T09:48:19.680Z,6.63
2023-01-30T09:51:00.502Z,6.64
2023-01-30T09:53:38.402Z,6.65
2023-01-30T09:56:07.455Z,6.64
2023-01-30T09:59:00.544Z,6.58
2023-01-30T10:01:51.888Z,6.55
2023-01-30T10:04:31.933Z,6.41
2023-01-30T10:07:43.865Z,6.39
2023-01-30T10:10:43.853Z,6.38
2023-01-30T10:13:44.203Z,6.26
2023-01-30T10:16:37.174Z,6.24
2023-01-30T10:19:36.487Z,6.33
2023-01-30T10:22:37.800Z,6.26
2023-01-30T10:25:21.838Z,6.29
2023-01-30T10:28:00.809Z,6.35
2023-01-30T10:30:29.478Z,6.35
2023-01-30T10:33:07.254Z,6.29
2023-01-30T10:35:42.775Z,6.26
2023-01-30T10:38:51.225Z,6.22
2023-01-30T10:41:37.685Z,6.13
2023-01-30T10:44:15.470Z,6.09
2023-01-30T10:47:02.215Z,6.11
2023-01-30T10:49:37.897Z,6.13
2023-01-30T10:52:20.997Z,6.08
2023-01-30T10:55:01.790Z,6.07
2023-01-30T10:57:57.838Z,6.04
2023-01-30T11:00:57.621Z,5.93
2023-01-30T11:03:37.657Z,5.85
2023-01-30T11:06:25.830Z,5.81
2023-01-30T11:08:55.730Z,5.77
2023-01-30T11:11:45.438Z,5.81
2023-01-30T11:14:14.349Z,5.81
2023-01-30T11:17:03.527Z,5.76
2023-01-30T11:19:35.998Z,5.76
2023-01-30T11:22:07.977Z,5.74
2023-01-30T11:24:46.854Z,5.72
2023-01-30T11:27:31.094Z,5.65
2023-01-30T11:30:17.941Z,5.61
2023-01-30T11:32:50.112Z,5.66
2023-01-30T11:35:25.605Z,5.71
2023-01-30T11:37:54.418Z,5.76
2023-01-30T11:40:32.031Z,5.79
2023-01-30T11:43:05.583Z,5.78
2023-01-30T11:45:47.456Z,5.74
2023-01-30T11:48:33.121Z,5.72
2023-01-30T11:51:12.031Z,5.80
2023-01-30T11:53:46.931Z,5.84
2023-01-30T11:56:23.448Z,5.87
2023-01-30T11:59:17.669Z,5.97
2023-01-30T12:01:46.233Z,6.10
2023-01-30T12:04:15.583Z,6.16
2023-01-30T12:06:45.474Z,6.19
2023-01-30T12:09:40.749Z,6.16
2023-01-30T12:12:47.913Z,6.13
2023-01-30T12:15:28.373Z,6.16
2023-01-30T12:18:36.658Z,6.19
2023-01-30T12:21:14.966Z,6.24
2023-01-30T12:24:09.858Z,6.31
2023-01-30T12:26:49.077Z,6.33
2023-01-30T12:29:41.018Z,6.36
2023-01-30T12:32:20.641Z,6.38
2023-01-30T12:34:49.314Z,6.41
2023-01-30T12:37:35.639Z,6.41
2023-01-30T12:40:24.937Z,6.46
2023-01-30T12:43:29.878Z,6.49
2023-01-30T12:46:27.221Z,6.49
2023-01-30T12:49:11.698Z,6.47
2023-01-30T12:52:06.620Z,6.45
2023-01-30T12:54:59.007Z,6.46
2023-01-30T12:57:48.687Z,6.46
2023-01-30T13:00:27.050Z,6.43
2023-01-30T13:03:01.448Z,6.44
2023-01-30T13:05:38.870Z,6.41
2023-01-30T13:08:51.797Z,6.37
2023-01-30T13:11:47.648Z,6.32
2023-01-30T13:14:48.229Z,6.30
2023-01-30T13:17:26.246Z,6.28
2023-01-30T13:20:20.059Z,6.24
2023-01-30T13:22:57.451Z,6.13
2023-01-30T13:25:59.527Z,6.10
2023-01-30T13:28:32.890Z,6.07
2023-01-30T13:31:03.518Z,6.01
2023-01-30T13:33:36.325Z,5.95
2023-01-30T13:36:25.935Z,5.87
2023-01-30T13:39:06.250Z,5.79
2023-01-30T13:41:41.652Z,5.73
2023-01-30T13:44:30.008Z,5.69
2023-01-30T13:47:19.425Z,5.65
2023-01-30T13:50:08.897Z,5.61
2023-01-30T13:52:43.072Z,5.55
2023-01-30T13:55:17.684Z,5.51
2023-01-30T13:58:34.203Z,5.43
2023-01-30T14:01:04.907Z,5.34
2023-01-30T14:03:36.352Z,5.24
2023-01-30T14:06:26.415Z,5.17
2023-01-30T14:09:00.074Z,5.16
2023-01-30T14:11:35.742Z,5.16
2023-01-30T14:14:28.032Z,5.10
2023-01-30T14:17:09.143Z,5.02
2023-01-30T14:19:41.020Z,4.93
2023-01-30T14:22:35.163Z,4.93
2023-01-30T14:25:31.025Z,4.87
2023-01-30T14:28:02.617Z,4.84
2023-01-30T14:30:38.636Z,4.85
2023-01-30T14:33:34.316Z,4.78
2023-01-30T14:36:02.632Z,4.76
2023-01-30T14:38:35.527Z,4.75
2023-01-30T14:41:03.784Z,4.69
2023-01-30T14:43:44.507Z,4.64
2023-01-30T14:46:21.690Z,4.60
2023-01-30T14:48:59.127Z,4.57
2023-01-30T14:51:38.164Z,4.53
2023-01-30T14:54:15.512Z,4.49
2023-01-30T14:56:56.407Z,4.50
2023-01-30T14:59:42.216Z,4.52
2023-01-30T15:02:16.276Z,4.51
2023-01-30T15:05:10.993Z,4.55
2023-01-30T15:08:12.333Z,4.56
2023-01-30T15:11:07.571Z,4.51
2023-01-30T15:14:02.140Z,4.53
2023-01-30T15:16:46.775Z,4.50
2023-01-30T15:19:34.363Z,4.46
2023-01-30T15:22:40.966Z,4.49
2023-01-30T15:25:36.239Z,4.50
2023-01-30T15:28:39.476Z,4.46
2023-01-30T15:31:12.663Z,4.53
2023-01-30T15:33:52.762Z,4.54
2023-01-30T15:36:30.242Z,4.59
2023-01-30T15:39:07.174Z,4.60
2023-01-30T15:41:42.853Z,4.68
2023-01-30T15:44:14.387Z,4.78
2023-01-30T15:46:45.907Z,4.89
2023-01-30T15:49:46.370Z,4.99
2023-01-30T15:52:18.893Z,5.10
2023-01-30T15:54:54.963Z,5.19
2023-01-30T15:57:30.173Z,5.27
2023-01-30T16:00:00.728Z,5.30
2023-01-30T16:02:34.570Z,5.35
2023-01-30T16:05:16.457Z,5.37
2023-01-30T16:07:47.384Z,5.43
2023-01-30T16:10:21.831Z,5.50
2023-01-30T16:12:53.729Z,5.60
2023-01-30T16:15:35.813Z,5.62
2023-01-30T16:18:16.132Z,5.69
2023-01-30T16:21:05.701Z,5.76
2023-01-30T16:23:39.933Z,5.81
2023-01-30T16:26:13.639Z,5.87
2023-01-30T16:28:42.433Z,5.96
2023-01-30T16:31:12.682Z,6.02
2023-01-30T16:33:41.082Z,6.07
2023-01-30T16:36:21.575Z,6.16
2023-01-30T16:38:51.611Z,6.20
2023-01-30T16:41:28.674Z,6.25
2023-01-30T16:44:23.112Z,6.31
2023-01-30T16:47:21.729Z,6.41
2023-01-30T16:49:51.500Z,6.51
2023-01-30T16:52:24.151Z,6.57
2023-01-30T16:55:02.712Z,6.60
2023-01-30T16:57:37.107Z,6.62
2023-01-30T17:00:30.480Z,6.64
2023-01-30T17:03:05.238Z,6.71
2023-01-30T17:05:44.209Z,6.76
2023-01-30T17:08:49.090Z,6.84
2023-01-30T17:11:38.138Z,6.90
2023-01-30T17:14:21.122Z,6.98
2023-01-30T17:17:10.890Z,7.06
2023-01-30T17:19:39.486Z,7.11
2023-01-30T17:22:18.724Z,7.13
2023-01-30T17:24:47.239Z,7.16
2023-01-30T17:27:16.919Z,7.19
2023-01-30T17:29:46.852Z,7.25
2023-01-30T17:32:16.997Z,7.32
2023-01-30T17:34:46.094Z,7.37
2023-01-30T17:37:20.687Z,7.40
2023-01-30T17:39:49.046Z,7.43
2023-01-30T17:42:22.843Z,7.50
2023-01-30T17:44:51.212Z,7.54
2023-01-30T17:47:19.546Z,7.58
2023-01-30T17:49:47.892Z,7.60
2023-01-30T17:52:16.161Z,7.65
2023-01-30T17:54:44.834Z,7.68
2023-01-30T17:57:16.553Z,7.73
2023-01-30T17:59:45.302Z,7.78
2023-01-30T18:02:14.246Z,7.80
2023-01-30T18:04:42.562Z,7.84
2023-01-30T18:07:15.471Z,7.87
2023-01-30T18:09:44.235Z,7.92
2023-01-30T18:12:12.520Z,7.98
2023-01-30T18:14:40.839Z,8.00
2023-01-30T18:17:10.515Z,8.02
2023-01-30T18:19:38.846Z,8.05
2023-01-30T18:22:07.217Z,8.09
2023-01-30T18:24:35.635Z,8.11
2023-01-30T18:27:03.953Z,8.15
2023-01-30T18:29:32.214Z,8.20
2023-01-30T18:32:05.937Z,8.22
2023-01-30T18:34:34.723Z,8.27
2023-01-30T18:37:03.013Z,8.32
2023-01-30T18:39:32.754Z,8.39
2023-01-30T18:42:02.944Z,8.49
2023-01-30T18:44:31.454Z,8.53
2023-01-30T18:46:59.701Z,8.54
2023-01-30T18:49:28.133Z,8.59
2023-01-30T18:51:56.379Z,8.71
2023-01-30T18:54:24.723Z,8.78
2023-01-30T18:56:53.008Z,8.86
2023-01-30T18:59:21.334Z,8.91
2023-01-30T19:01:49.590Z,8.96
2023-01-30T19:04:17.914Z,9.05
2023-01-30T19:06:46.452Z,9.11
2023-01-30T19:09:17.355Z,9.16
2023-01-30T19:12:04.083Z,9.18
2023-01-30T19:14:32.619Z,9.26
2023-01-30T19:17:01.392Z,9.32
2023-01-30T19:19:29.727Z,9.40
2023-01-30T19:21:58.100Z,9.48
2023-01-30T19:24:26.468Z,9.54
2023-01-30T19:26:54.787Z,9.57
2023-01-30T19:29:23.159Z,9.62
2023-01-30T19:31:51.513Z,9.67
2023-01-30T19:34:20.018Z,9.77
2023-01-30T19:36:48.452Z,9.90
2023-01-30T19:39:16.738Z,9.99
2023-01-30T19:41:45.317Z,10.04
2023-01-30T19:44:14.119Z,10.12
2023-01-30T19:46:42.525Z,10.17
2023-01-30T19:49:12.821Z,10.22
2023-01-30T19:51:42.627Z,10.26
2023-01-30T19:54:12.644Z,10.30
2023-01-30T19:56:43.278Z,10.33
2023-01-30T19:59:14.087Z,10.39
2023-01-30T20:01:42.666Z,10.46
2023-01-30T20:04:11.025Z,10.50
2023-01-30T20:06:44.222Z,10.57
2023-01-30T20:09:12.717Z,10.62
2023-01-30T20:11:42.704Z,10.60
2023-01-30T20:14:12.200Z,10.67
2023-01-30T20:16:40.600Z,10.75
2023-01-30T20:19:13.730Z,10.80
2023-01-30T20:21:42.120Z,10.86
2023-01-30T20:24:13.973Z,10.95
2023-01-30T20:26:42.917Z,10.96
2023-01-30T20:29:11.946Z,11.01
2023-01-30T20:31:40.770Z,11.10
2023-01-30T20:34:12.600Z,11.13
2023-01-30T20:36:40.899Z,11.20
2023-01-30T20:39:09.366Z,11.32
2023-01-30T20:41:38.752Z,11.40
2023-01-30T20:44:09.574Z,11.51
2023-01-30T20:46:41.938Z,11.54
2023-01-30T20:49:21.383Z,11.57
2023-01-30T20:51:52.272Z,11.64
2023-01-30T20:54:24.276Z,11.73
2023-01-30T20:56:54.682Z,11.85
2023-01-30T20:59:25.149Z,11.90
2023-01-30T21:01:54.565Z,11.94
2023-01-30T21:04:25.096Z,12.07
2023-01-30T21:06:53.569Z,12.18
2023-01-30T21:09:24.056Z,12.28
2023-01-30T21:11:53.879Z,12.28
2023-01-30T21:14:24.027Z,12.22
2023-01-30T21:16:53.424Z,12.17
2023-01-30T21:19:22.314Z,12.18
2023-01-30T21:21:54.843Z,12.25
2023-01-30T21:24:26.399Z,12.32
2023-01-30T21:26:55.863Z,12.42
2023-01-30T21:29:26.608Z,12.55
2023-01-30T21:31:56.468Z,12.62
2023-01-30T21:34:24.964Z,12.68
2023-01-30T21:37:11.566Z,12.83
2023-01-30T21:39:58.108Z,12.98
2023-01-30T21:42:45.077Z,13.14
2023-01-30T21:45:13.473Z,13.25
2023-01-30T21:47:41.828Z,13.39
2023-01-30T21:50:10.895Z,13.52
2023-01-30T21:52:39.182Z,13.69
2023-01-30T21:55:07.720Z,13.84
2023-01-30T21:57:36.555Z,13.89
2023-01-30T22:00:05.957Z,13.93
2023-01-30T22:02:34.220Z,14.02
2023-01-30T22:05:02.479Z,14.07
2023-01-30T22:07:31.980Z,14.18
2023-01-30T22:10:02.427Z,14.30
2023-01-30T22:12:32.530Z,14.46
2023-01-30T22:15:00.856Z,14.58
2023-01-30T22:17:29.231Z,14.68
2023-01-30T22:19:57.540Z,14.76
2023-01-30T22:22:26.513Z,14.88
2023-01-30T22:24:54.902Z,14.95
2023-01-30T22:27:23.179Z,15.02
2023-01-30T22:29:51.703Z,15.11
2023-01-30T22:32:20.017Z,15.20
2023-01-30T22:34:48.337Z,15.33
2023-01-30T22:37:17.270Z,15.43
2023-01-30T22:39:45.821Z,15.56
2023-01-30T22:42:14.631Z,15.70
2023-01-30T22:44:42.978Z,15.76
2023-01-30T22:47:11.401Z,15.78
2023-01-30T22:49:40.483Z,15.76
2023-01-30T22:52:08.789Z,15.53
2023-01-30T22:54:37.233Z,15.48
2023-01-30T22:57:05.579Z,15.43
2023-01-30T22:59:33.900Z,15.22
2023-01-30T23:02:02.305Z,15.16
2023-01-30T23:04:30.691Z,15.15
2023-01-30T23:07:00.435Z,15.18
2023-01-30T23:09:28.800Z,15.26
2023-01-30T23:12:16.778Z,15.21
2023-01-30T23:14:46.389Z,15.15
2023-01-30T23:17:32.806Z,15.06
2023-01-30T23:20:01.157Z,14.91
2023-01-30T23:22:29.538Z,14.80
2023-01-30T23:24:57.898Z,14.55
2023-01-30T23:27:26.740Z,14.31
2023-01-30T23:29:54.992Z,14.15
2023-01-30T23:32:24.599Z,14.04
2023-01-30T23:34:52.994Z,13.84
2023-01-30T23:37:41.124Z,13.69
2023-01-30T23:40:10.245Z,13.62
2023-01-30T23:42:38.820Z,13.58
2023-01-30T23:45:07.573Z,13.53
2023-01-30T23:47:36.249Z,13.46
2023-01-30T23:50:04.736Z,13.32
2023-01-30T23:52:33.179Z,13.21
2023-01-30T23:55:01.490Z,13.13
2023-01-30T23:57:29.839Z,13.07
2023-01-30T23:59:58.130Z,13.01
